createdAt,value
2023-03-28T00:00:35.834Z,93255.00
2023-03-28T00:01:35.826Z,93253.00
2023-03-28T00:02:35.850Z,93253.00
2023-03-28T00:03:36.066Z,93255.00
2023-03-28T00:04:35.855Z,93253.00
2023-03-28T00:05:35.875Z,93253.00
2023-03-28T00:06:35.889Z,93253.00
2023-03-28T00:07:35.891Z,93251.00
2023-03-28T00:08:35.881Z,93251.00
2023-03-28T00:09:35.886Z,93249.00
2023-03-28T00:10:35.898Z,93249.00
2023-03-28T00:11:35.911Z,93247.00
2023-03-28T00:12:35.922Z,93249.00
2023-03-28T00:13:35.938Z,93251.00
2023-03-28T00:14:36.008Z,93253.00
2023-03-28T00:15:35.989Z,93253.00
2023-03-28T00:16:35.959Z,93253.00
2023-03-28T00:17:36.029Z,93251.00
2023-03-28T00:18:35.960Z,93249.00
2023-03-28T00:19:35.966Z,93247.00
2023-03-28T00:20:35.966Z,93249.00
2023-03-28T00:21:35.983Z,93247.00
2023-03-28T00:22:35.974Z,93245.00
2023-03-28T00:23:35.997Z,93245.00
2023-03-28T00:24:35.993Z,93241.00
2023-03-28T00:25:36.011Z,93239.00
2023-03-28T00:26:36.186Z,93237.00
2023-03-28T00:27:36.023Z,93241.00
2023-03-28T00:28:36.012Z,93241.00
2023-03-28T00:29:36.025Z,93245.00
2023-03-28T00:30:36.050Z,93243.00
2023-03-28T00:31:36.068Z,93243.00
2023-03-28T00:32:36.066Z,93247.00
2023-03-28T00:33:36.080Z,93247.00
2023-03-28T00:34:36.068Z,93245.00
2023-03-28T00:35:36.079Z,93247.00
2023-03-28T00:36:36.066Z,93247.00
2023-03-28T00:37:36.077Z,93249.00
2023-03-28T00:38:36.076Z,93249.00
2023-03-28T00:39:36.091Z,93249.00
2023-03-28T00:40:36.098Z,93249.00
2023-03-28T00:41:36.109Z,93247.00
2023-03-28T00:42:36.113Z,93247.00
2023-03-28T00:43:36.134Z,93247.00
2023-03-28T00:44:36.140Z,93247.00
2023-03-28T00:45:36.149Z,93245.00
2023-03-28T00:46:36.260Z,93247.00
2023-03-28T00:47:36.167Z,93247.00
2023-03-28T00:48:36.175Z,93249.00
2023-03-28T00:49:36.171Z,93251.00
2023-03-28T00:50:36.249Z,93251.00
2023-03-28T00:51:36.254Z,93251.00
2023-03-28T00:52:36.190Z,93249.00
2023-03-28T00:53:36.201Z,93255.00
2023-03-28T00:54:36.193Z,93253.00
2023-03-28T00:55:36.197Z,93255.00
2023-03-28T00:56:36.246Z,93257.00
2023-03-28T00:57:36.296Z,93255.00
2023-03-28T00:58:36.203Z,93255.00
2023-03-28T00:59:36.269Z,93257.00
2023-03-28T01:00:36.201Z,93253.00
2023-03-28T01:01:36.275Z,93251.00
2023-03-28T01:02:36.842Z,93253.00
2023-03-28T01:03:36.308Z,93253.00
2023-03-28T01:04:36.215Z,93251.00
2023-03-28T01:05:36.224Z,93253.00
2023-03-28T01:06:36.222Z,93255.00
2023-03-28T01:07:36.221Z,93255.00
2023-03-28T01:08:36.225Z,93257.00
2023-03-28T01:09:36.768Z,93259.00
2023-03-28T01:10:36.230Z,93257.00
2023-03-28T01:11:36.238Z,93257.00
2023-03-28T01:12:36.227Z,93259.00
2023-03-28T01:13:36.241Z,93259.00
2023-03-28T01:14:36.234Z,93259.00
2023-03-28T01:15:36.247Z,93257.00
2023-03-28T01:16:36.302Z,93261.00
2023-03-28T01:17:36.261Z,93259.00
2023-03-28T01:18:36.322Z,93261.00
2023-03-28T01:19:36.257Z,93261.00
2023-03-28T01:20:36.263Z,93261.00
2023-03-28T01:21:36.260Z,93259.00
2023-03-28T01:22:36.249Z,93259.00
2023-03-28T01:23:36.247Z,93261.00
2023-03-28T01:24:36.252Z,93259.00
2023-03-28T01:25:36.245Z,93261.00
2023-03-28T01:26:36.776Z,93261.00
2023-03-28T01:27:36.246Z,93261.00
2023-03-28T01:28:36.254Z,93259.00
2023-03-28T01:29:36.227Z,93257.00
2023-03-28T01:30:36.226Z,93255.00
2023-03-28T01:31:36.338Z,93255.00
2023-03-28T01:32:36.245Z,93257.00
2023-03-28T01:33:36.215Z,93257.00
2023-03-28T01:34:36.223Z,93257.00
2023-03-28T01:35:36.307Z,93259.00
2023-03-28T01:36:36.224Z,93262.00
2023-03-28T01:37:36.213Z,93259.00
2023-03-28T01:38:36.214Z,93261.00
2023-03-28T01:39:36.220Z,93262.00
2023-03-28T01:40:36.229Z,93261.00
2023-03-28T01:41:36.220Z,93264.00
2023-03-28T01:42:36.228Z,93264.00
2023-03-28T01:43:36.232Z,93266.00
2023-03-28T01:44:36.230Z,93264.00
2023-03-28T01:45:36.268Z,93268.00
2023-03-28T01:46:36.248Z,93268.00
2023-03-28T01:47:36.312Z,93270.00
2023-03-28T01:48:36.250Z,93270.00
2023-03-28T01:49:36.327Z,93268.00
2023-03-28T01:50:36.253Z,93270.00
2023-03-28T01:51:36.258Z,93270.00
2023-03-28T01:52:36.258Z,93272.00
2023-03-28T01:53:36.263Z,93268.00
2023-03-28T01:54:36.269Z,93268.00
2023-03-28T01:55:41.740Z,93268.00
2023-03-28T01:56:37.353Z,93270.00
2023-03-28T01:57:36.308Z,93268.00
2023-03-28T01:58:36.770Z,93266.00
2023-03-28T01:59:36.288Z,93264.00
2023-03-28T02:00:36.292Z,93268.00
2023-03-28T02:01:36.301Z,93266.00
2023-03-28T02:02:36.395Z,93264.00
2023-03-28T02:03:36.402Z,93266.00
2023-03-28T02:04:36.319Z,93266.00
2023-03-28T02:05:36.303Z,93266.00
2023-03-28T02:06:36.296Z,93266.00
2023-03-28T02:07:36.308Z,93268.00
2023-03-28T02:08:36.303Z,93264.00
2023-03-28T02:09:36.783Z,93262.00
2023-03-28T02:10:37.281Z,93262.00
2023-03-28T02:11:36.320Z,93261.00
2023-03-28T02:12:36.337Z,93264.00
2023-03-28T02:13:36.353Z,93270.00
2023-03-28T02:14:36.349Z,93272.00
2023-03-28T02:15:36.346Z,93274.00
2023-03-28T02:16:36.348Z,93274.00
2023-03-28T02:17:36.381Z,93272.00
2023-03-28T02:18:36.360Z,93276.00
2023-03-28T02:19:36.348Z,93278.00
2023-03-28T02:20:36.361Z,93282.00
2023-03-28T02:21:36.360Z,93278.00
2023-03-28T02:22:36.363Z,93280.00
2023-03-28T02:23:36.369Z,93282.00
2023-03-28T02:24:36.374Z,93282.00
2023-03-28T02:25:36.376Z,93282.00
2023-03-28T02:26:36.379Z,93278.00
2023-03-28T02:27:36.378Z,93280.00
2023-03-28T02:28:36.385Z,93284.00
2023-03-28T02:29:36.389Z,93288.00
2023-03-28T02:30:36.397Z,93290.00
2023-03-28T02:31:36.483Z,93288.00
2023-03-28T02:32:36.416Z,93288.00
2023-03-28T02:33:36.401Z,93286.00
2023-03-28T02:34:36.401Z,93282.00
2023-03-28T02:35:36.442Z,93282.00
2023-03-28T02:36:36.410Z,93284.00
2023-03-28T02:37:36.412Z,93284.00
2023-03-28T02:38:36.420Z,93286.00
2023-03-28T02:39:36.433Z,93286.00
2023-03-28T02:40:36.444Z,93286.00
2023-03-28T02:41:36.439Z,93286.00
2023-03-28T02:42:36.442Z,93282.00
2023-03-28T02:43:36.448Z,93284.00
2023-03-28T02:44:36.458Z,93282.00
2023-03-28T02:45:36.469Z,93280.00
2023-03-28T02:46:36.541Z,93278.00
2023-03-28T02:47:36.512Z,93278.00
2023-03-28T02:48:36.502Z,93280.00
2023-03-28T02:49:47.683Z,93278.00
2023-03-28T02:50:37.516Z,93276.00
2023-03-28T02:51:36.512Z,93274.00
2023-03-28T02:52:36.521Z,93270.00
2023-03-28T02:53:36.527Z,93270.00
2023-03-28T02:54:36.530Z,93268.00
2023-03-28T02:55:36.546Z,93270.00
2023-03-28T02:56:37.347Z,93270.00
2023-03-28T02:57:36.634Z,93272.00
2023-03-28T02:58:36.548Z,93272.00
2023-03-28T02:59:36.553Z,93270.00
2023-03-28T03:00:36.562Z,93268.00
2023-03-28T03:01:36.650Z,93268.00
2023-03-28T03:02:36.590Z,93272.00
2023-03-28T03:03:36.700Z,93270.00
2023-03-28T03:04:36.572Z,93272.00
2023-03-28T03:05:36.575Z,93272.00
2023-03-28T03:06:36.581Z,93270.00
2023-03-28T03:07:36.578Z,93268.00
2023-03-28T03:08:36.651Z,93270.00
2023-03-28T03:09:36.599Z,93270.00
2023-03-28T03:10:36.580Z,93272.00
2023-03-28T03:11:36.599Z,93274.00
2023-03-28T03:12:36.625Z,93272.00
2023-03-28T03:13:36.598Z,93270.00
2023-03-28T03:14:36.609Z,93270.00
2023-03-28T03:15:36.614Z,93270.00
2023-03-28T03:16:36.680Z,93268.00
2023-03-28T03:17:36.671Z,93270.00
2023-03-28T03:18:36.635Z,93268.00
2023-03-28T03:19:36.631Z,93270.00
2023-03-28T03:20:36.643Z,93270.00
2023-03-28T03:21:36.640Z,93272.00
2023-03-28T03:22:36.636Z,93274.00
2023-03-28T03:23:37.319Z,93276.00
2023-03-28T03:24:36.711Z,93276.00
2023-03-28T03:25:36.637Z,93276.00
2023-03-28T03:26:36.829Z,93274.00
2023-03-28T03:27:36.640Z,93276.00
2023-03-28T03:28:36.633Z,93276.00
2023-03-28T03:29:38.792Z,93276.00
2023-03-28T03:30:36.628Z,93276.00
2023-03-28T03:31:36.672Z,93274.00
2023-03-28T03:32:36.700Z,93274.00
2023-03-28T03:33:36.628Z,93278.00
2023-03-28T03:34:36.624Z,93276.00
2023-03-28T03:35:36.684Z,93276.00
2023-03-28T03:36:36.620Z,93274.00
2023-03-28T03:37:36.618Z,93274.00
2023-03-28T03:38:36.622Z,93276.00
2023-03-28T03:39:36.626Z,93274.00
2023-03-28T03:40:36.621Z,93274.00
2023-03-28T03:41:36.688Z,93274.00
2023-03-28T03:42:36.613Z,93276.00
2023-03-28T03:43:36.608Z,93276.00
2023-03-28T03:44:36.601Z,93280.00
2023-03-28T03:45:36.610Z,93282.00
2023-03-28T03:46:36.694Z,93280.00
2023-03-28T03:47:36.703Z,93280.00
2023-03-28T03:48:36.593Z,93280.00
2023-03-28T03:49:36.582Z,93276.00
2023-03-28T03:50:36.580Z,93276.00
2023-03-28T03:51:36.596Z,93276.00
2023-03-28T03:52:36.574Z,93280.00
2023-03-28T03:53:36.589Z,93282.00
2023-03-28T03:54:38.049Z,93282.00
2023-03-28T03:55:36.569Z,93282.00
2023-03-28T03:56:36.681Z,93284.00
2023-03-28T03:57:36.578Z,93284.00
2023-03-28T03:58:36.573Z,93286.00
2023-03-28T03:59:36.570Z,93288.00
2023-03-28T04:00:36.562Z,93288.00
2023-03-28T04:01:36.557Z,93288.00
2023-03-28T04:02:36.623Z,93290.00
2023-03-28T04:03:36.593Z,93290.00
2023-03-28T04:04:36.559Z,93290.00
2023-03-28T04:05:36.553Z,93294.00
2023-03-28T04:06:36.553Z,93294.00
2023-03-28T04:07:36.563Z,93296.00
2023-03-28T04:08:36.557Z,93294.00
2023-03-28T04:09:36.561Z,93298.00
2023-03-28T04:10:36.566Z,93298.00
2023-03-28T04:11:36.558Z,93296.00
2023-03-28T04:12:36.553Z,93298.00
2023-03-28T04:13:36.565Z,93296.00
2023-03-28T04:14:37.338Z,93296.00
2023-03-28T04:15:36.590Z,93298.00
2023-03-28T04:16:40.965Z,93300.00
2023-03-28T04:17:37.611Z,93304.00
2023-03-28T04:18:36.592Z,93302.00
2023-03-28T04:19:36.598Z,93304.00
2023-03-28T04:20:36.608Z,93302.00
2023-03-28T04:21:36.612Z,93308.00
2023-03-28T04:22:36.617Z,93306.00
2023-03-28T04:23:37.632Z,93306.00
2023-03-28T04:24:36.665Z,93304.00
2023-03-28T04:25:36.634Z,93308.00
2023-03-28T04:26:36.707Z,93308.00
2023-03-28T04:27:36.648Z,93310.00
2023-03-28T04:28:36.660Z,93312.00
2023-03-28T04:29:36.659Z,93310.00
2023-03-28T04:30:36.665Z,93314.00
2023-03-28T04:31:37.367Z,93312.00
2023-03-28T04:32:36.686Z,93312.00
2023-03-28T04:33:37.348Z,93312.00
2023-03-28T04:34:37.904Z,93312.00
2023-03-28T04:35:36.857Z,93310.00
2023-03-28T04:36:36.670Z,93310.00
2023-03-28T04:37:36.685Z,93316.00
2023-03-28T04:38:36.693Z,93314.00
2023-03-28T04:39:36.691Z,93316.00
2023-03-28T04:40:36.704Z,93317.00
2023-03-28T04:41:37.407Z,93314.00
2023-03-28T04:42:36.698Z,93317.00
2023-03-28T04:43:36.773Z,93321.00
2023-03-28T04:44:36.710Z,93325.00
2023-03-28T04:45:36.736Z,93323.00
2023-03-28T04:46:36.724Z,93323.00
2023-03-28T04:47:36.784Z,93323.00
2023-03-28T04:48:36.766Z,93327.00
2023-03-28T04:49:36.761Z,93327.00
2023-03-28T04:50:37.356Z,93331.00
2023-03-28T04:51:36.786Z,93331.00
2023-03-28T04:52:36.818Z,93333.00
2023-03-28T04:53:36.840Z,93335.00
2023-03-28T04:54:36.895Z,93333.00
2023-03-28T04:55:36.854Z,93337.00
2023-03-28T04:56:36.901Z,93339.00
2023-03-28T04:57:36.893Z,93341.00
2023-03-28T04:58:36.906Z,93339.00
2023-03-28T04:59:36.924Z,93343.00
2023-03-28T05:00:36.944Z,93343.00
2023-03-28T05:01:36.972Z,93341.00
2023-03-28T05:02:38.013Z,93345.00
2023-03-28T05:03:36.994Z,93343.00
2023-03-28T05:04:36.976Z,93347.00
2023-03-28T05:05:36.999Z,93347.00
2023-03-28T05:06:37.077Z,93347.00
2023-03-28T05:07:37.021Z,93354.00
2023-03-28T05:08:37.065Z,93358.00
2023-03-28T05:09:37.030Z,93356.00
2023-03-28T05:10:37.055Z,93360.00
2023-03-28T05:11:37.070Z,93360.00
2023-03-28T05:12:37.113Z,93362.00
2023-03-28T05:13:37.109Z,93362.00
2023-03-28T05:14:37.124Z,93362.00
2023-03-28T05:15:37.132Z,93362.00
2023-03-28T05:16:37.212Z,93364.00
2023-03-28T05:17:37.221Z,93366.00
2023-03-28T05:18:37.357Z,93366.00
2023-03-28T05:19:37.210Z,93366.00
2023-03-28T05:20:37.239Z,93370.00
2023-03-28T05:21:37.357Z,93372.00
2023-03-28T05:22:37.303Z,93366.00
2023-03-28T05:23:37.250Z,93370.00
2023-03-28T05:24:37.409Z,93368.00
2023-03-28T05:25:37.311Z,93366.00
2023-03-28T05:26:37.852Z,93366.00
2023-03-28T05:27:37.327Z,93372.00
2023-03-28T05:28:37.335Z,93376.00
2023-03-28T05:29:37.357Z,93378.00
2023-03-28T05:30:37.358Z,93380.00
2023-03-28T05:31:37.467Z,93380.00
2023-03-28T05:32:37.458Z,93378.00
2023-03-28T05:33:37.470Z,93384.00
2023-03-28T05:34:37.616Z,93384.00
2023-03-28T05:35:37.642Z,93388.00
2023-03-28T05:36:37.657Z,93386.00
2023-03-28T05:37:39.165Z,93392.00
2023-03-28T05:38:37.716Z,93392.00
2023-03-28T05:39:37.712Z,93390.00
2023-03-28T05:40:37.722Z,93392.00
2023-03-28T05:41:37.710Z,93398.00
2023-03-28T05:42:37.700Z,93400.00
2023-03-28T05:43:37.714Z,93401.00
2023-03-28T05:44:38.283Z,93403.00
2023-03-28T05:45:37.747Z,93403.00
2023-03-28T05:46:37.717Z,93403.00
2023-03-28T05:47:37.700Z,93405.00
2023-03-28T05:48:37.650Z,93409.00
2023-03-28T05:49:37.634Z,93407.00
2023-03-28T05:50:37.651Z,93409.00
2023-03-28T05:51:37.621Z,93411.00
2023-03-28T05:52:37.601Z,93413.00
2023-03-28T05:53:37.620Z,93411.00
2023-03-28T05:54:37.574Z,93413.00
2023-03-28T05:55:37.563Z,93415.00
2023-03-28T05:56:37.601Z,93419.00
2023-03-28T05:57:37.588Z,93415.00
2023-03-28T05:58:37.527Z,93425.00
2023-03-28T05:59:37.507Z,93423.00
2023-03-28T06:00:38.365Z,93425.00
2023-03-28T06:01:37.492Z,93423.00
2023-03-28T06:02:37.479Z,93429.00
2023-03-28T06:03:37.456Z,93431.00
2023-03-28T06:04:37.458Z,93431.00
2023-03-28T06:05:37.418Z,93433.00
2023-03-28T06:06:37.409Z,93437.00
2023-03-28T06:07:42.595Z,93439.00
2023-03-28T06:08:38.383Z,93443.00
2023-03-28T06:09:37.343Z,93443.00
2023-03-28T06:10:37.948Z,93447.00
2023-03-28T06:11:37.299Z,93449.00
2023-03-28T06:12:37.274Z,93451.00
2023-03-28T06:13:37.265Z,93456.00
2023-03-28T06:14:37.258Z,93454.00
2023-03-28T06:15:37.242Z,93458.00
2023-03-28T06:16:37.237Z,93460.00
2023-03-28T06:17:37.259Z,93460.00
2023-03-28T06:18:37.260Z,93462.00
2023-03-28T06:19:37.912Z,93462.00
2023-03-28T06:20:37.927Z,93464.00
2023-03-28T06:21:37.160Z,93466.00
2023-03-28T06:22:37.170Z,93464.00
2023-03-28T06:23:37.129Z,93464.00
2023-03-28T06:24:37.142Z,93462.00
2023-03-28T06:25:37.061Z,93462.00
2023-03-28T06:26:37.049Z,93464.00
2023-03-28T06:27:37.038Z,93462.00
2023-03-28T06:28:37.021Z,93462.00
2023-03-28T06:29:38.114Z,93462.00
2023-03-28T06:30:36.980Z,93464.00
2023-03-28T06:31:37.006Z,93464.00
2023-03-28T06:32:36.991Z,93464.00
2023-03-28T06:33:36.921Z,93464.00
2023-03-28T06:34:36.908Z,93466.00
2023-03-28T06:35:36.941Z,93466.00
2023-03-28T06:36:36.889Z,93458.00
2023-03-28T06:37:36.892Z,93462.00
2023-03-28T06:38:36.959Z,93464.00
2023-03-28T06:39:36.848Z,93464.00
2023-03-28T06:40:37.376Z,93466.00
2023-03-28T06:41:36.829Z,93470.00
2023-03-28T06:42:36.836Z,93470.00
2023-03-28T06:43:36.807Z,93470.00
2023-03-28T06:44:36.863Z,93470.00
2023-03-28T06:45:36.871Z,93472.00
2023-03-28T06:46:36.791Z,93472.00
2023-03-28T06:47:36.781Z,93472.00
2023-03-28T06:48:37.389Z,93474.00
2023-03-28T06:49:36.733Z,93474.00
2023-03-28T06:50:36.727Z,93476.00
2023-03-28T06:51:36.783Z,93480.00
2023-03-28T06:52:36.836Z,93478.00
2023-03-28T06:53:36.900Z,93480.00
2023-03-28T06:54:36.948Z,93484.00
2023-03-28T06:55:36.983Z,93482.00
2023-03-28T06:56:37.052Z,93482.00
2023-03-28T06:57:37.104Z,93486.00
2023-03-28T06:58:37.142Z,93488.00
2023-03-28T06:59:37.206Z,93486.00
2023-03-28T07:00:37.254Z,93486.00
2023-03-28T07:01:37.364Z,93490.00
2023-03-28T07:02:37.437Z,93484.00
2023-03-28T07:03:37.506Z,93486.00
2023-03-28T07:04:37.488Z,93488.00
2023-03-28T07:05:37.532Z,93490.00
2023-03-28T07:06:37.607Z,93496.00
2023-03-28T07:07:37.654Z,93494.00
2023-03-28T07:08:37.702Z,93496.00
2023-03-28T07:09:37.821Z,93496.00
2023-03-28T07:10:37.807Z,93500.00
2023-03-28T07:11:38.065Z,93509.00
2023-03-28T07:12:37.925Z,93505.00
2023-03-28T07:13:38.053Z,93505.00
2023-03-28T07:14:38.021Z,93507.00
2023-03-28T07:15:38.086Z,93505.00
2023-03-28T07:16:38.175Z,93509.00
2023-03-28T07:17:38.195Z,93509.00
2023-03-28T07:18:38.260Z,93513.00
2023-03-28T07:19:38.311Z,93513.00
2023-03-28T07:20:38.372Z,93517.00
2023-03-28T07:21:38.450Z,93515.00
2023-03-28T07:22:38.501Z,93517.00
2023-03-28T07:23:38.549Z,93517.00
2023-03-28T07:24:38.597Z,93515.00
2023-03-28T07:25:38.642Z,93513.00
2023-03-28T07:26:38.688Z,93511.00
2023-03-28T07:27:38.729Z,93513.00
2023-03-28T07:28:38.773Z,93515.00
2023-03-28T07:29:38.805Z,93515.00
2023-03-28T07:30:38.829Z,93521.00
2023-03-28T07:31:39.013Z,93521.00
2023-03-28T07:32:50.404Z,93521.00
2023-03-28T07:33:39.926Z,93527.00
2023-03-28T07:34:38.857Z,93527.00
2023-03-28T07:35:38.898Z,93529.00
2023-03-28T07:36:38.839Z,93531.00
2023-03-28T07:37:38.836Z,93531.00
2023-03-28T07:38:38.839Z,93531.00
2023-03-28T07:39:38.813Z,93531.00
2023-03-28T07:40:38.812Z,93533.00
2023-03-28T07:41:38.795Z,93529.00
2023-03-28T07:42:38.786Z,93533.00
2023-03-28T07:43:38.815Z,93535.00
2023-03-28T07:44:41.039Z,93535.00
2023-03-28T07:45:38.782Z,93535.00
2023-03-28T07:46:38.745Z,93537.00
2023-03-28T07:47:38.764Z,93537.00
2023-03-28T07:48:38.724Z,93539.00
2023-03-28T07:49:38.717Z,93539.00
2023-03-28T07:50:38.706Z,93543.00
2023-03-28T07:51:38.689Z,93541.00
2023-03-28T07:52:38.767Z,93539.00
2023-03-28T07:53:38.693Z,93537.00
2023-03-28T07:54:39.652Z,93537.00
2023-03-28T07:56:40.902Z,93539.00
2023-03-28T07:57:38.632Z,93539.00
2023-03-28T07:58:38.677Z,93539.00
2023-03-28T07:59:38.709Z,93543.00
2023-03-28T08:00:38.742Z,93543.00
2023-03-28T08:01:38.841Z,93543.00
2023-03-28T08:02:39.466Z,93545.00
2023-03-28T08:03:38.942Z,93545.00
2023-03-28T08:04:39.417Z,93545.00
2023-03-28T08:05:38.862Z,93541.00
2023-03-28T08:06:38.867Z,93539.00
2023-03-28T08:07:38.870Z,93535.00
2023-03-28T08:08:38.893Z,93537.00
2023-03-28T08:09:38.935Z,93533.00
2023-03-28T08:10:38.989Z,93533.00
2023-03-28T08:11:39.124Z,93533.00
2023-03-28T08:12:39.112Z,93531.00
2023-03-28T08:13:39.175Z,93535.00
2023-03-28T08:14:39.192Z,93535.00
2023-03-28T08:15:39.370Z,93533.00
2023-03-28T08:16:39.257Z,93533.00
2023-03-28T08:17:39.330Z,93537.00
2023-03-28T08:18:39.290Z,93533.00
2023-03-28T08:19:39.322Z,93537.00
2023-03-28T08:20:39.326Z,93535.00
2023-03-28T08:21:39.347Z,93535.00
2023-03-28T08:22:39.929Z,93537.00
2023-03-28T08:23:39.928Z,93531.00
2023-03-28T08:24:39.446Z,93535.00
2023-03-28T08:25:40.413Z,93531.00
2023-03-28T08:26:39.560Z,93531.00
2023-03-28T08:27:39.611Z,93533.00
2023-03-28T08:28:39.647Z,93533.00
2023-03-28T08:29:40.415Z,93531.00
2023-03-28T08:30:39.699Z,93535.00
2023-03-28T08:31:39.750Z,93533.00
2023-03-28T08:32:39.767Z,93537.00
2023-03-28T08:33:40.422Z,93535.00
2023-03-28T08:34:39.774Z,93537.00
2023-03-28T08:35:39.851Z,93537.00
2023-03-28T08:36:39.770Z,93537.00
2023-03-28T08:37:39.815Z,93537.00
2023-03-28T08:38:39.760Z,93537.00
2023-03-28T08:39:39.830Z,93533.00
2023-03-28T08:40:40.340Z,93533.00
2023-03-28T08:41:39.769Z,93531.00
2023-03-28T08:42:39.762Z,93529.00
2023-03-28T08:43:39.929Z,93527.00
2023-03-28T08:44:39.745Z,93525.00
2023-03-28T08:45:39.750Z,93527.00
2023-03-28T08:46:39.820Z,93529.00
2023-03-28T08:47:39.841Z,93527.00
2023-03-28T08:48:39.848Z,93529.00
2023-03-28T08:49:39.845Z,93529.00
2023-03-28T08:50:40.431Z,93529.00
2023-03-28T08:51:39.908Z,93529.00
2023-03-28T08:52:39.947Z,93525.00
2023-03-28T08:53:39.996Z,93527.00
2023-03-28T08:54:40.003Z,93523.00
2023-03-28T08:55:40.929Z,93525.00
2023-03-28T08:56:40.960Z,93527.00
2023-03-28T08:57:40.927Z,93525.00
2023-03-28T08:58:40.227Z,93521.00
2023-03-28T08:59:40.233Z,93519.00
2023-03-28T09:00:40.325Z,93517.00
2023-03-28T09:01:40.384Z,93519.00
2023-03-28T09:02:40.375Z,93521.00
2023-03-28T09:03:40.523Z,93521.00
2023-03-28T09:04:40.382Z,93519.00
2023-03-28T09:05:40.448Z,93517.00
2023-03-28T09:06:40.416Z,93509.00
2023-03-28T09:07:40.932Z,93507.00
2023-03-28T09:08:40.427Z,93507.00
2023-03-28T09:09:40.936Z,93505.00
2023-03-28T09:10:40.422Z,93505.00
2023-03-28T09:11:40.473Z,93513.00
2023-03-28T09:12:40.413Z,93509.00
2023-03-28T09:13:40.415Z,93507.00
2023-03-28T09:14:40.409Z,93503.00
2023-03-28T09:15:40.417Z,93503.00
2023-03-28T09:16:40.398Z,93505.00
2023-03-28T09:17:40.451Z,93503.00
2023-03-28T09:18:40.389Z,93505.00
2023-03-28T09:19:47.789Z,93507.00
2023-03-28T09:20:43.206Z,93505.00
2023-03-28T09:21:40.371Z,93503.00
2023-03-28T09:22:40.345Z,93505.00
2023-03-28T09:23:40.393Z,93505.00
2023-03-28T09:24:40.349Z,93509.00
2023-03-28T09:25:40.293Z,93503.00
2023-03-28T09:26:40.278Z,93507.00
2023-03-28T09:27:40.351Z,93505.00
2023-03-28T09:28:40.264Z,93507.00
2023-03-28T09:29:40.258Z,93511.00
2023-03-28T09:30:40.224Z,93507.00
2023-03-28T09:31:40.270Z,93507.00
2023-03-28T09:32:40.257Z,93509.00
2023-03-28T09:33:40.191Z,93513.00
2023-03-28T09:34:40.285Z,93515.00
2023-03-28T09:35:40.199Z,93509.00
2023-03-28T09:36:48.408Z,93507.00
2023-03-28T09:37:41.137Z,93517.00
2023-03-28T09:38:40.146Z,93519.00
2023-03-28T09:39:40.117Z,93511.00
2023-03-28T09:40:40.101Z,93521.00
2023-03-28T09:41:40.183Z,93523.00
2023-03-28T09:42:40.085Z,93525.00
2023-03-28T09:43:40.088Z,93525.00
2023-03-28T09:44:52.915Z,93529.00
2023-03-28T09:45:41.090Z,93517.00
2023-03-28T09:46:40.035Z,93525.00
2023-03-28T09:47:40.070Z,93529.00
2023-03-28T09:48:40.045Z,93535.00
2023-03-28T09:49:39.976Z,93533.00
2023-03-28T09:50:39.955Z,93527.00
2023-03-28T09:51:39.978Z,93533.00
2023-03-28T09:52:39.962Z,93533.00
2023-03-28T09:53:39.987Z,93537.00
2023-03-28T09:54:40.026Z,93539.00
2023-03-28T09:55:40.047Z,93535.00
2023-03-28T09:56:40.134Z,93533.00
2023-03-28T09:57:40.129Z,93535.00
2023-03-28T09:58:40.158Z,93531.00
2023-03-28T09:59:40.220Z,93533.00
2023-03-28T10:00:40.233Z,93527.00
2023-03-28T10:01:40.327Z,93527.00
2023-03-28T10:02:40.318Z,93535.00
2023-03-28T10:03:40.338Z,93529.00
2023-03-28T10:04:40.442Z,93525.00
2023-03-28T10:05:40.398Z,93529.00
2023-03-28T10:06:40.423Z,93523.00
2023-03-28T10:07:40.440Z,93525.00
2023-03-28T10:08:40.458Z,93527.00
2023-03-28T10:09:40.480Z,93529.00
2023-03-28T10:10:40.499Z,93527.00
2023-03-28T10:11:40.511Z,93521.00
2023-03-28T10:12:40.547Z,93523.00
2023-03-28T10:13:40.625Z,93521.00
2023-03-28T10:14:40.586Z,93521.00
2023-03-28T10:15:40.657Z,93515.00
2023-03-28T10:16:41.658Z,93519.00
2023-03-28T10:17:40.721Z,93531.00
2023-03-28T10:18:41.378Z,93525.00
2023-03-28T10:19:40.806Z,93521.00
2023-03-28T10:20:40.867Z,93513.00
2023-03-28T10:21:41.050Z,93525.00
2023-03-28T10:22:40.960Z,93515.00
2023-03-28T10:23:41.012Z,93511.00
2023-03-28T10:24:41.095Z,93513.00
2023-03-28T10:25:41.137Z,93521.00
2023-03-28T10:26:41.157Z,93507.00
2023-03-28T10:27:41.243Z,93511.00
2023-03-28T10:28:41.168Z,93519.00
2023-03-28T10:29:41.258Z,93515.00
2023-03-28T10:30:41.281Z,93503.00
2023-03-28T10:31:41.288Z,93503.00
2023-03-28T10:32:41.204Z,93502.00
2023-03-28T10:33:41.197Z,93503.00
2023-03-28T10:34:41.181Z,93507.00
2023-03-28T10:35:41.191Z,93503.00
2023-03-28T10:36:41.199Z,93502.00
2023-03-28T10:37:41.197Z,93502.00
2023-03-28T10:38:41.204Z,93509.00
2023-03-28T10:39:41.202Z,93502.00
2023-03-28T10:40:41.298Z,93502.00
2023-03-28T10:41:41.257Z,93502.00
2023-03-28T10:42:41.267Z,93496.00
2023-03-28T10:43:41.295Z,93505.00
2023-03-28T10:44:41.330Z,93505.00
2023-03-28T10:45:41.380Z,93500.00
2023-03-28T10:46:41.527Z,93503.00
2023-03-28T10:47:41.608Z,93507.00
2023-03-28T10:48:41.546Z,93500.00
2023-03-28T10:49:41.600Z,93505.00
2023-03-28T10:50:41.650Z,93505.00
2023-03-28T10:51:41.700Z,93503.00
2023-03-28T10:52:41.741Z,93502.00
2023-03-28T10:53:41.764Z,93503.00
2023-03-28T10:54:42.390Z,93503.00
2023-03-28T10:55:41.801Z,93500.00
2023-03-28T10:56:41.887Z,93502.00
2023-03-28T10:57:41.828Z,93496.00
2023-03-28T10:58:41.837Z,93496.00
2023-03-28T10:59:41.852Z,93494.00
2023-03-28T11:00:41.876Z,93492.00
2023-03-28T11:01:41.992Z,93492.00
2023-03-28T11:02:41.998Z,93494.00
2023-03-28T11:03:42.026Z,93486.00
2023-03-28T11:04:42.027Z,93490.00
2023-03-28T11:05:42.025Z,93486.00
2023-03-28T11:06:42.023Z,93490.00
2023-03-28T11:07:42.048Z,93490.00
2023-03-28T11:08:42.974Z,93490.00
2023-03-28T11:09:42.125Z,93486.00
2023-03-28T11:10:42.158Z,93482.00
2023-03-28T11:11:43.129Z,93484.00
2023-03-28T11:12:54.237Z,93484.00
2023-03-28T11:13:43.104Z,93482.00
2023-03-28T11:14:42.081Z,93482.00
2023-03-28T11:15:42.064Z,93478.00
2023-03-28T11:16:42.292Z,93476.00
2023-03-28T11:17:42.087Z,93472.00
2023-03-28T11:18:42.044Z,93474.00
2023-03-28T11:19:42.014Z,93474.00
2023-03-28T11:20:41.998Z,93472.00
2023-03-28T11:21:41.981Z,93470.00
2023-03-28T11:22:47.554Z,93466.00
2023-03-28T11:23:42.960Z,93466.00
2023-03-28T11:24:42.003Z,93468.00
2023-03-28T11:25:42.024Z,93468.00
2023-03-28T11:26:42.071Z,93470.00
2023-03-28T11:27:42.085Z,93468.00
2023-03-28T11:28:43.553Z,93470.00
2023-03-28T11:29:44.036Z,93468.00
2023-03-28T11:30:42.228Z,93468.00
2023-03-28T11:31:42.295Z,93466.00
2023-03-28T11:32:42.385Z,93470.00
2023-03-28T11:33:42.326Z,93472.00
2023-03-28T11:34:42.919Z,93468.00
2023-03-28T11:35:42.423Z,93472.00
2023-03-28T11:36:42.386Z,93468.00
2023-03-28T11:37:42.412Z,93462.00
2023-03-28T11:38:42.441Z,93462.00
2023-03-28T11:39:42.463Z,93464.00
2023-03-28T11:40:42.477Z,93466.00
2023-03-28T11:41:42.503Z,93462.00
2023-03-28T11:42:42.504Z,93460.00
2023-03-28T11:43:42.521Z,93460.00
2023-03-28T11:44:42.572Z,93458.00
2023-03-28T11:45:51.074Z,93460.00